Time;durP1;ratioP1;P1;durP2;ratioP2;P2;SDS_P1;SDS_P2;PMS_P1;PMS_P2;Temp;Humidity;BMP_temperature;BMP_pressure;BME280_temperature;BME280_humidity;BME280_pressure;Samples;Min_cycle;Max_cycle;Signal;HPM_P1;HPM_P2
2021/08/09 00:00:41;;;;;;;26.52;4.43;;;;;;;14.65;82.10;101395.28;5008819;28;20026;-67
2021/08/09 00:03:07;;;;;;;22.50;4.40;;;;;;;14.65;81.93;101394.44;5010267;28;20032;-67
2021/08/09 00:15:38;;;;;;;22.88;4.63;;;;;;;14.61;81.11;101400.72;5009984;28;20445;-67
2021/08/09 00:18:03;;;;;;;19.55;4.50;;;;;;;14.59;80.96;101403.44;5010347;28;20017;-67
2021/08/09 00:20:29;;;;;;;24.15;4.38;;;;;;;14.60;80.92;101399.88;5007579;28;20521;-67
2021/08/09 00:22:55;;;;;;;19.13;4.18;;;;;;;14.56;81.48;101403.53;5010696;28;20053;-68
2021/08/09 00:25:20;;;;;;;18.38;4.20;;;;;;;14.56;81.50;101403.53;5008699;28;20371;-68
2021/08/09 00:27:46;;;;;;;22.67;3.92;;;;;;;14.55;81.30;101412.41;5008887;28;20068;-66
2021/08/09 00:30:11;;;;;;;20.95;4.55;;;;;;;14.56;81.88;101400.91;5010448;28;20426;-67
2021/08/09 00:32:37;;;;;;;24.90;4.18;;;;;;;14.56;81.62;101406.19;5009850;28;20021;-67
2021/08/09 00:35:03;;;;;;;22.48;4.57;;;;;;;14.58;81.68;101408.78;5010649;28;20028;-67
2021/08/09 00:37:29;;;;;;;20.30;4.90;;;;;;;14.59;81.85;101407.88;5009788;28;20026;-67
2021/08/09 00:39:54;;;;;;;18.75;3.78;;;;;;;14.58;81.78;101400.88;5010320;28;20057;-67
2021/08/09 00:42:19;;;;;;;21.52;4.38;;;;;;;14.62;81.42;101399.81;5009430;28;20018;-67
2021/08/09 00:44:45;;;;;;;21.55;3.80;;;;;;;14.64;81.32;101403.25;5010151;28;20018;-67
2021/08/09 00:47:10;;;;;;;27.15;5.63;;;;;;;14.62;81.78;101411.22;5009322;28;20370;-66
2021/08/09 00:49:36;;;;;;;22.75;4.45;;;;;;;14.65;81.46;101403.22;5009845;28;20033;-68
2021/08/09 00:52:03;;;;;;;19.40;4.35;;;;;;;14.66;81.20;101402.31;5008947;28;20410;-66
2021/08/09 00:54:28;;;;;;;15.98;4.03;;;;;;;14.71;81.06;101398.59;5007652;28;20084;-68
2021/08/09 00:56:54;;;;;;;20.25;4.70;;;;;;;14.72;81.06;101408.25;5008137;28;20794;-68
2021/08/09 00:59:19;;;;;;;20.52;4.68;;;;;;;14.68;81.44;101402.22;5008811;28;20328;-67
2021/08/09 01:01:45;;;;;;;21.50;5.47;;;;;;;14.67;81.50;101411.06;5008435;28;20033;-67
2021/08/09 01:04:10;;;;;;;20.83;3.97;;;;;;;14.65;81.20;101405.84;5009038;28;20029;-67
2021/08/09 01:06:37;;;;;;;24.58;4.00;;;;;;;14.68;81.20;101412.78;5009517;28;20021;-67
2021/08/09 01:09:02;;;;;;;27.60;4.80;;;;;;;14.66;81.07;101414.63;5007515;28;20017;-67
2021/08/09 01:11:41;;;;;;;25.33;4.10;;;;;;;14.66;81.08;101426.06;5009117;28;20081;-68
2021/08/09 01:14:17;;;;;;;17.63;3.55;;;;;;;14.63;81.41;101426.13;5007750;28;20026;-67
2021/08/09 01:16:44;;;;;;;25.83;4.47;;;;;;;14.61;81.23;101419.19;5009312;28;20022;-68
2021/08/09 01:19:25;;;;;;;20.85;4.53;;;;;;;14.63;80.97;101418.22;5008333;28;20037;-67
2021/08/09 01:21:52;;;;;;;21.60;4.38;;;;;;;14.62;81.10;101413.00;5008097;28;20033;-67
2021/08/09 01:24:33;;;;;;;21.27;4.13;;;;;;;14.62;80.67;101415.66;5006805;28;20063;-67
2021/08/09 01:27:27;;;;;;;20.20;4.72;;;;;;;14.61;81.24;101422.72;5008122;28;20030;-68
2021/08/09 01:29:54;;;;;;;24.20;4.73;;;;;;;14.58;81.62;101420.19;4990997;28;20020;-67
2021/08/09 01:32:21;;;;;;;21.70;4.18;;;;;;;14.58;81.01;101421.97;5007762;28;20072;-67
2021/08/09 01:34:47;;;;;;;23.05;5.28;;;;;;;14.56;81.18;101418.53;5006734;28;20029;-67
2021/08/09 01:37:13;;;;;;;21.50;4.63;;;;;;;14.61;80.72;101428.00;5007681;28;20026;-66
2021/08/09 01:39:39;;;;;;;18.08;4.00;;;;;;;14.62;81.41;101432.31;5006841;28;20026;-66
2021/08/09 01:42:04;;;;;;;19.05;4.00;;;;;;;14.59;81.34;101427.19;5007163;28;20118;-67
2021/08/09 01:44:30;;;;;;;26.10;4.70;;;;;;;14.58;81.81;101429.91;5007739;28;20021;-67
2021/08/09 01:46:55;;;;;;;21.48;4.85;;;;;;;14.59;81.14;101428.97;5006909;28;20025;-67
2021/08/09 01:49:21;;;;;;;23.27;3.97;;;;;;;14.56;80.87;101431.72;5008606;28;20033;-68
2021/08/09 01:51:47;;;;;;;23.95;4.68;;;;;;;14.55;80.82;101430.00;5006832;28;20037;-67
2021/08/09 01:54:13;;;;;;;24.48;4.55;;;;;;;14.52;80.70;101433.63;5007401;28;20025;-69
2021/08/09 01:56:39;;;;;;;28.15;4.65;;;;;;;14.50;81.09;101432.84;5006842;28;20407;-67
2021/08/09 01:59:05;;;;;;;22.30;5.45;;;;;;;14.48;80.90;101429.41;5008552;28;20018;-67
2021/08/09 02:01:31;;;;;;;25.33;4.18;;;;;;;14.49;80.47;101447.81;5006872;28;20041;-67
2021/08/09 02:03:56;;;;;;;24.65;4.40;;;;;;;14.44;80.74;101441.00;5008451;28;20022;-67
2021/08/09 02:06:21;;;;;;;19.95;3.70;;;;;;;14.44;80.64;101441.00;5008319;28;20510;-67
2021/08/09 02:08:47;;;;;;;19.20;4.10;;;;;;;14.43;80.23;101448.06;5007655;28;20469;-66
2021/08/09 02:11:16;;;;;;;22.55;4.15;;;;;;;14.41;80.27;101443.75;5006749;28;20051;-67
2021/08/09 02:13:48;;;;;;;19.73;3.85;;;;;;;14.40;80.65;101450.84;5006751;28;20026;-67
2021/08/09 02:16:40;;;;;;;18.77;4.25;;;;;;;14.36;80.40;101452.72;5007934;28;20029;-66
2021/08/09 02:19:25;;;;;;;17.85;4.10;;;;;;;14.34;80.59;101451.06;5008296;28;20517;-67
2021/08/09 02:22:06;;;;;;;19.05;4.18;;;;;;;14.32;80.42;101456.38;4990122;28;20026;-67
2021/08/09 02:24:37;;;;;;;17.10;3.85;;;;;;;14.31;80.21;101457.31;5006783;28;20038;-67
2021/08/09 02:27:05;;;;;;;18.88;4.53;;;;;;;14.33;80.02;101470.47;5006157;28;20039;-67
2021/08/09 02:29:32;;;;;;;27.60;4.97;;;;;;;14.29;80.51;101461.78;5007027;28;20024;-66
2021/08/09 02:31:58;;;;;;;21.50;4.57;;;;;;;14.30;79.80;101462.63;5007638;28;20018;-67
2021/08/09 02:34:28;;;;;;;18.23;3.85;;;;;;;14.28;80.08;101460.06;5006281;28;20117;-67
2021/08/09 02:36:54;;;;;;;17.98;4.20;;;;;;;14.28;80.16;101457.44;5007215;28;20101;-67
2021/08/09 02:39:19;;;;;;;20.13;3.65;;;;;;;14.26;80.51;101463.69;5005904;28;20025;-67
2021/08/09 02:41:45;;;;;;;19.92;3.38;;;;;;;14.25;80.50;101459.31;5006466;28;20056;-66
2021/08/09 02:44:11;;;;;;;23.00;4.45;;;;;;;14.26;80.56;101459.25;5005722;28;20491;-67
2021/08/09 02:46:38;;;;;;;18.25;3.90;;;;;;;14.24;80.42;101463.75;5006392;28;20483;-67
2021/08/09 02:49:04;;;;;;;17.23;3.75;;;;;;;14.27;80.17;101457.50;5007344;28;20022;-67
2021/08/09 02:51:31;;;;;;;24.40;4.65;;;;;;;14.21;80.58;101455.94;5007410;28;20029;-68
2021/08/09 02:53:56;;;;;;;20.75;4.05;;;;;;;14.22;81.07;101459.47;5006032;28;20026;-68
2021/08/09 02:56:24;;;;;;;18.63;4.05;;;;;;;14.19;80.73;101460.44;5006344;28;20017;-67
2021/08/09 02:58:51;;;;;;;18.38;4.53;;;;;;;14.18;80.53;101456.91;5005640;28;20483;-67
2021/08/09 03:01:17;;;;;;;15.70;4.30;;;;;;;14.18;80.96;101458.72;5006255;28;20033;-67
2021/08/09 03:03:42;;;;;;;17.13;4.53;;;;;;;14.15;81.11;101457.06;5005867;28;20027;-66
2021/08/09 03:06:09;;;;;;;24.63;4.05;;;;;;;14.21;80.76;101458.56;5007566;28;20117;-67
2021/08/09 03:08:36;;;;;;;23.20;4.32;;;;;;;14.19;81.02;101455.16;5007229;28;20053;-67
2021/08/09 03:11:01;;;;;;;18.83;3.95;;;;;;;14.17;81.26;101459.63;5005804;28;20026;-67
2021/08/09 03:13:26;;;;;;;23.08;4.47;;;;;;;14.18;81.36;101456.06;5005859;28;20025;-67
2021/08/09 03:15:52;;;;;;;19.60;4.07;;;;;;;14.17;81.26;101455.19;5006824;28;20026;-67
2021/08/09 03:18:18;;;;;;;18.98;4.38;;;;;;;14.17;81.55;101459.63;5006019;28;20030;-68
2021/08/09 03:20:43;;;;;;;21.35;5.10;;;;;;;14.18;81.12;101464.84;5006630;28;20022;-67
2021/08/09 03:23:09;;;;;;;27.40;4.78;;;;;;;14.19;81.29;101465.72;5007205;28;20522;-68
2021/08/09 03:25:34;;;;;;;21.55;4.88;;;;;;;14.21;81.31;101474.41;5005168;28;20498;-68
2021/08/09 03:28:00;;;;;;;18.23;4.45;;;;;;;14.17;81.26;101464.91;5006900;28;20041;-68
2021/08/09 03:30:29;;;;;;;20.95;4.20;;;;;;;14.17;81.49;101460.47;5006806;28;20029;-67
2021/08/09 03:32:54;;;;;;;19.33;3.97;;;;;;;14.18;81.69;101469.25;5006301;28;20038;-67
2021/08/09 03:35:21;;;;;;;18.33;3.78;;;;;;;14.15;81.73;101467.59;5005880;28;20033;-67
2021/08/09 03:37:46;;;;;;;21.75;4.18;;;;;;;14.15;82.04;101462.34;5005393;28;20475;-66
2021/08/09 03:40:12;;;;;;;24.15;4.28;;;;;;;14.14;81.80;101463.25;5007034;28;20029;-66
2021/08/09 03:42:37;;;;;;;22.15;4.28;;;;;;;14.11;82.30;101465.13;5006176;28;20092;-67
2021/08/09 03:45:04;;;;;;;22.83;4.30;;;;;;;14.08;82.18;101470.50;5006683;28;20022;-67
2021/08/09 03:47:29;;;;;;;16.33;4.05;;;;;;;14.08;82.65;101465.22;5006435;28;20041;-67
2021/08/09 03:49:54;;;;;;;20.50;4.70;;;;;;;14.08;82.33;101467.88;5006873;28;20022;-66
2021/08/09 03:52:20;;;;;;;15.80;4.22;;;;;;;14.10;82.52;101468.69;5006389;28;20030;-66
2021/08/09 03:54:45;;;;;;;15.93;4.30;;;;;;;14.08;82.93;101467.88;5006843;28;20026;-68
2021/08/09 03:57:10;;;;;;;24.17;4.47;;;;;;;14.06;82.78;101469.72;5006141;28;20030;-67
2021/08/09 03:59:36;;;;;;;17.83;4.07;;;;;;;14.06;82.91;101472.38;5006672;28;20109;-66
2021/08/09 04:02:01;;;;;;;17.85;4.70;;;;;;;14.09;82.60;101473.13;5005278;28;20037;-67
2021/08/09 04:04:26;;;;;;;20.05;4.18;;;;;;;14.07;82.88;101469.66;5006667;28;20052;-66
2021/08/09 04:06:52;;;;;;;16.23;3.70;;;;;;;14.07;82.67;101468.81;5006457;28;20044;-67
2021/08/09 04:09:18;;;;;;;19.83;4.30;;;;;;;14.05;82.90;101468.84;5005960;28;20109;-67
2021/08/09 04:11:43;;;;;;;21.20;4.32;;;;;;;14.04;82.93;101469.75;4993497;28;20025;-67
2021/08/09 04:14:08;;;;;;;19.15;4.07;;;;;;;14.04;82.73;101481.19;5006730;28;20432;-68
2021/08/09 04:16:34;;;;;;;24.88;4.43;;;;;;;14.06;82.68;101472.38;5006741;28;20022;-67
2021/08/09 04:18:59;;;;;;;20.50;4.22;;;;;;;14.07;82.50;101479.38;5005901;28;20030;-66
2021/08/09 04:21:24;;;;;;;22.45;3.60;;;;;;;14.08;82.23;101483.69;5005131;28;20819;-66
2021/08/09 04:23:50;;;;;;;17.85;4.28;;;;;;;14.08;82.52;101481.94;5005343;28;20459;-67
2021/08/09 04:26:16;;;;;;;18.25;4.03;;;;;;;14.11;82.09;101486.25;5005308;28;20038;-66
2021/08/09 04:28:42;;;;;;;19.63;4.28;;;;;;;14.10;82.09;101489.78;5006231;28;20022;-67
2021/08/09 04:31:08;;;;;;;20.10;4.05;;;;;;;14.08;82.69;101486.34;5007778;28;20100;-67
2021/08/09 04:33:45;;;;;;;13.02;3.40;;;;;;;14.07;82.08;101489.91;5010460;28;20384;-67
2021/08/09 04:36:10;;;;;;;16.58;3.70;;;;;;;14.07;82.27;101490.75;5001811;28;20044;-67
2021/08/09 04:38:36;;;;;;;20.27;4.28;;;;;;;14.10;81.75;101487.16;5010713;28;20022;-67
2021/08/09 04:41:07;;;;;;;17.98;3.70;;;;;;;14.13;81.45;101487.91;5011530;28;20025;-68
2021/08/09 04:43:33;;;;;;;18.38;3.58;;;;;;;14.13;81.61;101485.25;5010650;28;20030;-66
2021/08/09 04:45:59;;;;;;;20.40;4.28;;;;;;;14.11;81.68;101492.34;5008719;28;20033;-67
2021/08/09 04:48:24;;;;;;;13.95;2.92;;;;;;;14.15;81.31;101495.75;5007018;28;20546;-67
2021/08/09 04:50:49;;;;;;;15.25;3.83;;;;;;;14.17;80.95;101491.28;4998735;28;20357;-67
2021/08/09 04:53:15;;;;;;;18.70;3.67;;;;;;;14.17;80.95;101496.56;5011435;28;20483;-68
2021/08/09 04:55:40;;;;;;;18.17;4.00;;;;;;;14.20;80.89;101494.66;5011310;28;20029;-67
2021/08/09 04:58:05;;;;;;;15.90;3.40;;;;;;;14.19;80.79;101498.22;5011246;28;20084;-67
2021/08/09 05:00:31;;;;;;;17.05;3.20;;;;;;;14.16;80.73;101498.31;5010693;28;20076;-67
2021/08/09 05:02:56;;;;;;;19.10;4.53;;;;;;;14.20;80.77;101493.78;5009845;28;20028;-67
2021/08/09 05:05:22;;;;;;;18.20;4.13;;;;;;;14.22;80.53;101497.25;5011301;28;20080;-66
2021/08/09 05:07:48;;;;;;;21.05;3.80;;;;;;;14.24;80.91;101497.19;5011157;28;20037;-67
2021/08/09 05:10:14;;;;;;;18.42;3.60;;;;;;;14.25;80.74;101499.78;5010742;28;20389;-67
2021/08/09 05:12:39;;;;;;;15.68;4.05;;;;;;;14.29;80.82;101503.13;5010990;28;20033;-67
2021/08/09 05:15:06;;;;;;;16.92;3.55;;;;;;;14.32;80.39;101495.13;5011196;28;20032;-67
2021/08/09 05:17:33;;;;;;;17.60;3.67;;;;;;;14.35;80.51;101498.50;5010430;28;20023;-66
2021/08/09 05:19:59;;;;;;;18.00;3.35;;;;;;;14.44;79.46;101493.81;5009978;28;20021;-68
2021/08/09 05:22:24;;;;;;;20.02;3.60;;;;;;;14.46;79.63;101486.66;5009329;28;20557;-67
2021/08/09 05:24:49;;;;;;;18.60;3.17;;;;;;;14.51;79.54;101493.50;5010558;28;20038;-66
2021/08/09 05:27:15;;;;;;;13.68;3.25;;;;;;;14.58;79.05;101490.63;5010584;28;20022;-66
2021/08/09 05:29:40;;;;;;;17.10;3.47;;;;;;;14.65;79.00;101487.69;5011574;28;20041;-66
2021/08/09 05:32:06;;;;;;;15.35;3.38;;;;;;;14.72;78.80;101495.38;5009602;28;20029;-68
2021/08/09 05:34:32;;;;;;;17.50;4.13;;;;;;;14.83;78.39;101485.22;5009902;28;20348;-68
2021/08/09 05:36:57;;;;;;;17.55;3.60;;;;;;;14.92;78.20;101486.63;5009686;28;20387;-68
2021/08/09 05:39:22;;;;;;;13.95;3.30;;;;;;;14.96;77.91;101499.66;5009986;28;20022;-66
2021/08/09 05:41:48;;;;;;;14.20;3.47;;;;;;;14.97;78.43;101493.47;5008127;28;20124;-67
2021/08/09 05:44:13;;;;;;;14.93;3.25;;;;;;;14.99;78.31;101502.16;5008639;28;20022;-67
2021/08/09 05:46:38;;;;;;;19.95;3.42;;;;;;;14.98;78.09;101508.41;5009745;28;20091;-66
2021/08/09 05:49:04;;;;;;;18.83;3.58;;;;;;;14.96;78.50;101512.88;5007969;28;20522;-66
2021/08/09 05:51:30;;;;;;;18.50;3.70;;;;;;;14.96;78.58;101515.50;5008996;28;20068;-67
2021/08/09 05:53:55;;;;;;;15.68;3.53;;;;;;;14.94;78.49;101520.00;5010076;28;20029;-67
2021/08/09 05:56:21;;;;;;;14.98;3.28;;;;;;;14.93;78.70;101520.06;5010101;28;20029;-69
2021/08/09 05:58:46;;;;;;;12.77;2.80;;;;;;;14.88;78.94;101522.88;5010035;28;20498;-67
2021/08/09 06:01:11;;;;;;;11.70;3.05;;;;;;;14.87;79.15;101520.31;5009799;28;20022;-67
2021/08/09 06:03:41;;;;;;;12.68;3.30;;;;;;;14.85;79.05;101523.03;5009397;28;20038;-68
2021/08/09 06:06:06;;;;;;;14.77;3.30;;;;;;;14.94;78.25;101529.72;5010313;28;20030;-67
2021/08/09 06:08:31;;;;;;;14.23;3.45;;;;;;;14.97;78.19;101521.66;5010300;28;20033;-67
2021/08/09 06:10:57;;;;;;;13.57;2.90;;;;;;;15.00;78.45;101519.75;5006944;28;20057;-68
2021/08/09 06:13:22;;;;;;;12.23;3.22;;;;;;;15.09;77.81;101522.94;5008329;28;20026;-68
2021/08/09 06:15:47;;;;;;;18.08;3.85;;;;;;;15.15;77.08;101522.69;5007962;28;20018;-67
2021/08/09 06:18:12;;;;;;;17.42;3.63;;;;;;;15.20;76.92;101519.88;5009503;28;20048;-66
2021/08/09 06:20:38;;;;;;;15.00;3.17;;;;;;;15.32;76.71;101514.06;5009130;28;20026;-67
2021/08/09 06:23:04;;;;;;;13.48;3.03;;;;;;;15.54;75.46;101510.50;4999764;28;20025;-68
2021/08/09 06:25:30;;;;;;;8.40;2.35;;;;;;;15.70;74.86;101515.97;5007379;28;20105;-68
2021/08/09 06:27:55;;;;;;;16.83;3.35;;;;;;;15.88;74.19;101512.56;5009278;28;20014;-68
2021/08/09 06:30:21;;;;;;;12.68;2.72;;;;;;;16.01;73.40;101512.00;4998387;28;20049;-67
2021/08/09 06:32:46;;;;;;;17.63;3.45;;;;;;;16.12;72.89;101515.03;5007685;28;20530;-67
2021/08/09 06:35:11;;;;;;;12.73;3.42;;;;;;;16.10;72.86;101511.59;5009188;28;20092;-66
2021/08/09 06:37:37;;;;;;;16.67;3.08;;;;;;;16.04;72.47;101514.50;5008956;28;20387;-65
2021/08/09 06:40:03;;;;;;;16.42;3.25;;;;;;;16.08;72.92;101513.47;5009315;28;20022;-67
2021/08/09 06:42:29;;;;;;;17.67;3.45;;;;;;;16.16;72.48;101519.25;5008204;28;20034;-67
2021/08/09 06:44:54;;;;;;;10.15;2.75;;;;;;;16.28;71.53;101523.97;5007516;28;20033;-67
2021/08/09 06:47:19;;;;;;;12.10;2.72;;;;;;;16.40;70.99;101524.34;5006806;28;20021;-67
2021/08/09 06:49:45;;;;;;;14.60;3.13;;;;;;;16.55;70.82;101520.13;5008532;28;20478;-67
2021/08/09 06:52:10;;;;;;;14.60;3.00;;;;;;;16.67;69.96;101521.31;5007627;28;20064;-68
2021/08/09 06:54:35;;;;;;;10.68;2.63;;;;;;;16.86;69.25;101518.66;5005971;28;20105;-67
2021/08/09 06:57:00;;;;;;;12.18;2.85;;;;;;;16.92;68.59;101515.75;5007205;28;20050;-67
2021/08/09 06:59:26;;;;;;;9.35;2.53;;;;;;;17.22;68.20;101523.13;5001939;28;20049;-67
2021/08/09 07:01:51;;;;;;;11.73;2.70;;;;;;;17.52;67.59;101517.19;5006130;28;20405;-67
2021/08/09 07:04:16;;;;;;;11.52;2.75;;;;;;;17.64;66.46;101513.91;5005538;28;20037;-67
2021/08/09 07:06:42;;;;;;;9.88;2.67;;;;;;;17.69;66.18;101516.31;5006280;28;20386;-66
2021/08/09 07:09:07;;;;;;;10.40;2.90;;;;;;;17.52;66.09;101520.69;5004395;28;20411;-66
2021/08/09 07:11:33;;;;;;;13.07;2.90;;;;;;;17.49;66.36;101520.84;5004790;28;20021;-67
2021/08/09 07:13:58;;;;;;;10.57;2.67;;;;;;;17.30;67.14;101534.16;5004410;28;20815;-67
2021/08/09 07:16:25;;;;;;;14.32;2.75;;;;;;;17.07;67.58;101519.44;5004154;28;20037;-68
2021/08/09 07:18:51;;;;;;;13.77;2.75;;;;;;;16.82;68.42;101525.03;5005879;28;20044;-65
2021/08/09 07:21:16;;;;;;;15.93;2.67;;;;;;;16.70;70.23;101519.38;5003850;28;20080;-67
2021/08/09 07:23:42;;;;;;;9.55;2.80;;;;;;;16.61;70.53;101528.63;5006986;28;20030;-66
2021/08/09 07:26:08;;;;;;;8.68;2.40;;;;;;;16.57;70.84;101527.06;5005489;28;20026;-66
2021/08/09 07:28:33;;;;;;;11.07;2.72;;;;;;;16.49;71.28;101523.06;5013136;28;20093;-67
2021/08/09 07:30:58;;;;;;;9.07;2.33;;;;;;;16.46;71.91;101524.06;5004513;28;20029;-67
2021/08/09 07:33:24;;;;;;;10.63;3.15;;;;;;;16.44;72.11;101533.88;4997720;28;20080;-67
2021/08/09 07:35:49;;;;;;;12.23;2.70;;;;;;;16.42;72.21;101522.47;5000336;28;20463;-67
2021/08/09 07:38:14;;;;;;;7.43;2.65;;;;;;;16.36;73.23;101528.94;5004993;28;20018;-67
2021/08/09 07:40:40;;;;;;;10.27;2.80;;;;;;;16.33;73.49;101522.91;5002235;28;20022;-66
2021/08/09 07:43:05;;;;;;;14.40;3.15;;;;;;;16.41;73.07;101528.69;5000874;28;20099;-67
2021/08/09 07:45:30;;;;;;;9.13;2.95;;;;;;;16.71;71.86;101518.47;5003222;28;20117;-67
2021/08/09 07:47:57;;;;;;;13.80;2.90;;;;;;;16.86;71.98;101521.31;5005817;28;20018;-67
2021/08/09 07:50:22;;;;;;;12.25;2.95;;;;;;;17.09;71.21;101520.19;5005472;28;20022;-67
2021/08/09 07:52:48;;;;;;;13.55;2.72;;;;;;;17.21;71.28;101526.69;5006156;28;20029;-67
2021/08/09 07:55:13;;;;;;;14.30;3.30;;;;;;;17.21;70.79;101524.88;5006222;28;20033;-67
2021/08/09 07:57:39;;;;;;;9.80;3.10;;;;;;;17.23;70.83;101528.34;5007344;28;20033;-67
2021/08/09 08:00:05;;;;;;;13.98;3.10;;;;;;;17.17;70.11;101525.97;5006523;28;20065;-67
2021/08/09 08:02:30;;;;;;;12.57;3.22;;;;;;;17.15;70.73;101514.59;5006340;28;20033;-66
2021/08/09 08:04:56;;;;;;;8.98;2.85;;;;;;;17.20;70.83;101515.22;4995233;28;20026;-67
2021/08/09 08:07:21;;;;;;;10.88;3.10;;;;;;;17.39;69.31;101516.94;5006364;28;20173;-66
2021/08/09 08:09:48;;;;;;;8.82;2.83;;;;;;;17.61;68.88;101519.34;5009413;28;20033;-67
2021/08/09 08:12:14;;;;;;;11.15;2.72;;;;;;;18.02;66.46;101513.72;5007777;28;20057;-67
2021/08/09 08:14:39;;;;;;;10.02;3.22;;;;;;;18.20;65.72;101518.97;5009782;28;20057;-67
2021/08/09 08:17:04;;;;;;;14.38;3.42;;;;;;;18.60;65.49;101518.56;5009068;28;20100;-66
2021/08/09 08:19:30;;;;;;;13.20;3.10;;;;;;;18.50;65.05;101524.38;4991831;28;20291;-66
2021/08/09 08:21:55;;;;;;;15.50;3.10;;;;;;;18.67;64.30;101518.13;5009509;28;20026;-66
2021/08/09 08:24:20;;;;;;;9.60;2.65;;;;;;;18.90;63.41;101515.94;5007832;28;20365;-66
2021/08/09 08:26:47;;;;;;;10.38;2.55;;;;;;;19.60;61.12;101507.47;5007447;28;20022;-66
2021/08/09 08:29:12;;;;;;;8.55;2.50;;;;;;;20.36;57.97;101505.47;5008067;28;20430;-66
2021/08/09 08:31:37;;;;;;;8.75;2.80;;;;;;;20.99;56.00;101513.03;5008796;28;20029;-66
2021/08/09 08:34:03;;;;;;;9.27;2.83;;;;;;;20.83;57.90;101505.22;5008598;28;20022;-67
2021/08/09 08:36:28;;;;;;;11.25;2.97;;;;;;;20.67;56.97;101514.16;5009212;28;20030;-67
2021/08/09 08:38:56;;;;;;;14.15;3.35;;;;;;;20.55;58.59;101507.81;5008470;28;20085;-69
2021/08/09 08:41:21;;;;;;;7.00;2.63;;;;;;;20.00;58.28;101510.34;5009373;28;20021;-67
2021/08/09 08:43:46;;;;;;;12.05;2.83;;;;;;;19.52;59.50;101526.56;5005863;28;20025;-65
2021/08/09 08:46:12;;;;;;;10.45;2.75;;;;;;;19.00;60.89;101526.94;5006303;28;20101;-67
2021/08/09 08:48:38;;;;;;;10.40;3.00;;;;;;;18.85;62.07;101526.88;5009516;28;20501;-68
2021/08/09 08:51:04;;;;;;;10.13;2.47;;;;;;;18.53;63.13;101523.34;5008338;28;20114;-66
2021/08/09 08:53:34;;;;;;;7.10;2.30;;;;;;;18.36;63.95;101522.47;4997396;28;20025;-66
2021/08/09 08:56:04;;;;;;;9.60;2.60;;;;;;;18.34;63.86;101532.31;5008993;28;20021;-67
2021/08/09 08:58:29;;;;;;;11.00;3.20;;;;;;;18.21;64.87;101529.50;5008597;28;20545;-67
2021/08/09 09:00:54;;;;;;;7.35;2.63;;;;;;;18.17;65.88;101525.28;5009507;28;20061;-67
2021/08/09 09:03:22;;;;;;;9.75;2.65;;;;;;;18.15;66.22;101529.81;5009321;28;20099;-68
2021/08/09 09:06:04;;;;;;;18.83;3.53;;;;;;;17.95;66.33;101535.31;5008532;28;20036;-67
2021/08/09 09:08:47;;;;;;;9.15;2.47;;;;;;;18.03;66.23;101541.09;5007477;28;20026;-67
2021/08/09 09:11:37;;;;;;;7.13;2.33;;;;;;;18.01;66.03;101538.53;5003465;28;20025;-67
2021/08/09 09:14:05;;;;;;;9.43;2.80;;;;;;;17.95;66.74;101538.84;5004076;28;20022;-68
2021/08/09 09:16:48;;;;;;;8.05;2.40;;;;;;;17.83;68.10;101542.97;5002444;28;20029;-68
2021/08/09 09:19:35;;;;;;;13.25;2.72;;;;;;;17.85;67.43;101537.56;5001012;28;20121;-68
2021/08/09 09:22:24;;;;;;;9.10;2.88;;;;;;;17.88;67.34;101538.28;5006418;28;20041;-68
2021/08/09 09:24:51;;;;;;;8.30;2.53;;;;;;;17.93;67.60;101537.19;5003318;28;20033;-68
2021/08/09 09:27:33;;;;;;;7.57;2.80;;;;;;;17.93;67.14;101534.53;5007560;28;20495;-68
2021/08/09 09:30:00;;;;;;;8.60;2.60;;;;;;;17.88;68.62;101540.09;5001949;28;20025;-67
2021/08/09 09:32:26;;;;;;;6.43;2.30;;;;;;;17.90;67.78;101531.09;5008340;28;20022;-67
2021/08/09 09:34:53;;;;;;;7.95;2.80;;;;;;;17.85;68.33;101543.75;5003577;28;20030;-66
2021/08/09 09:37:29;;;;;;;8.75;2.83;;;;;;;17.93;67.29;101537.19;5002433;28;20603;-65
2021/08/09 09:40:12;;;;;;;11.55;3.05;;;;;;;17.79;67.79;101538.78;5001721;28;20090;-67
2021/08/09 09:42:40;;;;;;;7.63;2.50;;;;;;;17.88;68.40;101542.75;5002747;28;20022;-70
2021/08/09 09:45:27;;;;;;;8.45;2.38;;;;;;;17.97;67.97;101541.41;5002054;28;20052;-70
2021/08/09 09:48:05;;;;;;;11.55;3.10;;;;;;;18.04;67.40;101538.34;5007609;28;20034;-68
2021/08/09 09:50:32;;;;;;;9.45;2.50;;;;;;;17.98;67.45;101543.97;5000457;28;22297;-69
2021/08/09 09:53:13;;;;;;;12.93;3.53;;;;;;;17.94;68.17;101542.44;5005469;28;20521;-68
2021/08/09 09:55:39;;;;;;;11.15;3.17;;;;;;;18.07;66.22;101542.63;5005966;28;20471;-68
2021/08/09 09:58:04;;;;;;;7.68;2.40;;;;;;;18.24;65.51;101544.41;5000559;28;20030;-69
2021/08/09 10:00:33;;;;;;;8.80;2.60;;;;;;;18.49;65.50;101546.59;4996847;28;20034;-67
2021/08/09 10:02:59;;;;;;;6.05;2.45;;;;;;;18.68;64.38;101540.22;5005754;28;20025;-66
2021/08/09 10:05:24;;;;;;;10.23;2.53;;;;;;;18.54;64.87;101541.00;5006742;28;20029;-69
2021/08/09 10:07:53;;;;;;;8.85;2.78;;;;;;;18.30;64.95;101545.88;5006817;28;20123;-68
2021/08/09 10:10:22;;;;;;;10.70;2.80;;;;;;;18.31;65.29;101537.81;5004696;28;20029;-68
2021/08/09 10:12:48;;;;;;;7.63;2.40;;;;;;;18.73;63.63;101542.63;5006453;28;20026;-68
2021/08/09 10:15:16;;;;;;;7.78;2.40;;;;;;;18.83;61.88;101533.22;5005850;28;20033;-68
2021/08/09 10:17:42;;;;;;;6.72;2.00;;;;;;;18.79;61.09;101537.84;5005225;28;20037;-68
2021/08/09 10:20:09;;;;;;;7.72;2.28;;;;;;;18.84;61.29;101546.41;5002742;28;20022;-69
2021/08/09 10:22:35;;;;;;;8.38;2.03;;;;;;;18.89;60.94;101540.84;5005881;28;20022;-67
2021/08/09 10:25:01;;;;;;;6.47;2.30;;;;;;;19.42;61.40;101538.66;5002658;28;20169;-67
2021/08/09 10:27:45;;;;;;;8.70;2.47;;;;;;;19.98;60.35;101532.72;5001047;28;20044;-68
2021/08/09 10:30:14;;;;;;;10.73;2.58;;;;;;;20.29;58.83;101536.13;5000268;28;20025;-68
2021/08/09 10:32:45;;;;;;;9.98;3.00;;;;;;;19.87;61.48;101532.50;4999871;28;20473;-68
2021/08/09 10:35:32;;;;;;;8.88;2.70;;;;;;;19.53;62.05;101538.03;5003127;28;20164;-69
2021/08/09 10:38:14;;;;;;;11.63;2.72;;;;;;;19.45;62.57;101549.16;5004876;28;20096;-68
2021/08/09 10:40:40;;;;;;;6.55;2.30;;;;;;;19.44;61.69;101552.75;5004239;28;20088;-67
2021/08/09 10:43:06;;;;;;;11.63;2.78;;;;;;;19.36;61.85;101536.38;5004404;28;20108;-68
2021/08/09 10:45:39;;;;;;;9.05;3.08;;;;;;;19.42;62.07;101533.34;5004409;28;20426;-68
2021/08/09 10:48:05;;;;;;;8.23;2.47;;;;;;;19.74;59.98;101521.75;5004664;28;20030;-68
2021/08/09 10:50:40;;;;;;;7.30;2.40;;;;;;;19.89;59.22;101528.81;5004419;28;20633;-68
2021/08/09 10:53:28;;;;;;;8.73;2.50;;;;;;;19.59;59.38;101519.06;5004130;28;20083;-68
2021/08/09 10:55:55;;;;;;;9.02;2.63;;;;;;;19.47;60.32;101518.00;5005266;28;20032;-70
2021/08/09 10:58:42;;;;;;;10.30;2.50;;;;;;;19.16;62.20;101514.50;5005070;28;20483;-68
2021/08/09 11:01:11;;;;;;;8.98;2.63;;;;;;;19.04;63.10;101515.22;5005431;28;20033;-68
2021/08/09 11:04:04;;;;;;;7.45;2.78;;;;;;;18.68;64.85;101532.25;5004605;28;20030;-67
2021/08/09 11:06:55;;;;;;;6.35;2.17;;;;;;;18.25;66.05;101529.34;5004991;28;20482;-68
2021/08/09 11:09:29;;;;;;;9.27;2.83;;;;;;;18.30;66.04;101537.91;5004045;28;20517;-68
2021/08/09 11:12:13;;;;;;;9.50;2.55;;;;;;;19.03;63.30;101542.72;5005758;28;20033;-68
2021/08/09 11:15:07;;;;;;;4.90;2.35;;;;;;;19.43;61.73;101543.06;5006073;28;20109;-68
2021/08/09 11:17:41;;;;;;;5.22;2.20;;;;;;;19.19;61.81;101543.53;5006454;28;20018;-67
2021/08/09 11:20:28;;;;;;;3.75;2.03;;;;;;;18.93;61.88;101552.16;5006109;28;20300;-68
2021/08/09 11:23:02;;;;;;;5.00;2.22;;;;;;;18.88;62.12;101555.91;4994010;28;20068;-68
2021/08/09 11:25:29;;;;;;;4.35;2.17;;;;;;;18.71;61.26;101553.34;5000913;28;20029;-67
2021/08/09 11:27:59;;;;;;;6.75;2.13;;;;;;;18.49;62.51;101549.25;5004984;28;20022;-68
2021/08/09 11:30:38;;;;;;;5.57;2.10;;;;;;;18.52;61.85;101548.22;5003872;28;20064;-68
2021/08/09 11:33:04;;;;;;;4.40;2.10;;;;;;;18.46;62.13;101560.03;5003911;28;20475;-69